Time;durP1;ratioP1;P1;durP2;ratioP2;P2;SDS_P1;SDS_P2;PMS_P1;PMS_P2;Temp;Humidity;BMP_temperature;BMP_pressure;BME280_temperature;BME280_humidity;BME280_pressure;Samples;Min_cycle;Max_cycle;Signal;HPM_P1;HPM_P2
2022/03/24 00:01:00;;;;;;;102.70;50.72;;;2.50;99.90;;;;;;5095903;28;20059;-69
2022/03/24 00:03:25;;;;;;;92.07;48.63;;;2.50;99.90;;;;;;5096418;28;20025;-69
2022/03/24 00:05:51;;;;;;;104.55;51.30;;;2.50;99.90;;;;;;5095723;28;20028;-69
2022/03/24 00:08:16;;;;;;;109.25;52.75;;;2.50;99.90;;;;;;5095206;28;20035;-69
2022/03/24 00:10:42;;;;;;;104.63;51.03;;;2.50;99.90;;;;;;5096057;28;20024;-69
2022/03/24 00:13:08;;;;;;;103.95;52.38;;;2.50;99.90;;;;;;5095669;28;20040;-69
2022/03/24 00:15:33;;;;;;;89.25;47.90;;;2.50;99.90;;;;;;5095653;28;20044;-69
2022/03/24 00:17:59;;;;;;;94.18;50.88;;;2.40;99.90;;;;;;5095513;28;20028;-68
2022/03/24 00:20:25;;;;;;;109.03;52.10;;;2.40;99.90;;;;;;5096304;28;20034;-69
2022/03/24 00:22:51;;;;;;;96.15;52.78;;;2.40;99.90;;;;;;5096069;28;20107;-69
2022/03/24 00:25:17;;;;;;;112.22;54.85;;;2.40;99.90;;;;;;5095469;28;20074;-69
2022/03/24 00:27:43;;;;;;;108.47;57.47;;;2.40;99.90;;;;;;5095495;28;20024;-69
2022/03/24 00:30:09;;;;;;;107.55;53.95;;;2.40;99.90;;;;;;5095836;28;20020;-69
2022/03/24 00:32:37;;;;;;;102.55;53.08;;;2.40;99.90;;;;;;5095665;28;20103;-69
2022/03/24 00:35:04;;;;;;;107.68;54.80;;;2.40;99.90;;;;;;5095122;28;20032;-69
2022/03/24 00:37:31;;;;;;;105.20;55.60;;;2.40;99.90;;;;;;5095327;28;20100;-69
2022/03/24 00:39:56;;;;;;;108.80;54.08;;;2.40;99.90;;;;;;5095358;28;20027;-69
2022/03/24 00:42:23;;;;;;;105.20;52.95;;;2.40;99.90;;;;;;5095136;28;20396;-69
2022/03/24 00:44:49;;;;;;;99.15;52.63;;;2.30;99.90;;;;;;5095093;28;20033;-69
2022/03/24 00:47:15;;;;;;;101.38;52.03;;;2.30;99.90;;;;;;5095371;28;20020;-69
2022/03/24 00:49:42;;;;;;;113.93;55.08;;;2.30;99.90;;;;;;5094998;28;20020;-69
2022/03/24 00:52:09;;;;;;;113.85;57.28;;;2.20;99.90;;;;;;5095444;28;20024;-69
2022/03/24 00:54:35;;;;;;;103.88;52.03;;;2.20;99.90;;;;;;5094856;28;20073;-69
2022/03/24 00:57:01;;;;;;;102.30;50.95;;;2.20;99.90;;;;;;5095195;28;20051;-69
2022/03/24 00:59:27;;;;;;;105.53;52.63;;;2.10;99.90;;;;;;5094949;28;20024;-69
2022/03/24 01:01:54;;;;;;;107.30;52.35;;;2.10;99.90;;;;;;5095384;28;20028;-68
2022/03/24 01:04:20;;;;;;;106.82;54.40;;;2.00;99.90;;;;;;5096079;28;20073;-69
2022/03/24 01:06:46;;;;;;;119.60;57.05;;;2.00;99.90;;;;;;5095192;28;20035;-69
2022/03/24 01:09:12;;;;;;;109.97;54.42;;;2.00;99.90;;;;;;5095200;28;20020;-69
2022/03/24 01:11:37;;;;;;;107.40;54.28;;;2.00;99.90;;;;;;5094550;28;20031;-69
2022/03/24 01:14:05;;;;;;;103.93;54.95;;;2.00;99.90;;;;;;5094396;28;20031;-69
2022/03/24 01:16:31;;;;;;;108.53;55.20;;;2.00;99.90;;;;;;5094831;28;20020;-69
2022/03/24 01:18:57;;;;;;;113.47;57.03;;;2.00;99.90;;;;;;5094489;28;20020;-69
2022/03/24 01:21:22;;;;;;;118.88;58.50;;;2.00;99.90;;;;;;5094075;28;20031;-69
2022/03/24 01:23:48;;;;;;;111.80;56.60;;;2.00;99.90;;;;;;5094317;28;20028;-69
2022/03/24 01:26:15;;;;;;;108.13;55.10;;;2.00;99.90;;;;;;5094383;28;20023;-69
2022/03/24 01:28:41;;;;;;;120.75;56.60;;;2.10;99.90;;;;;;5094304;28;20592;-69
2022/03/24 01:31:08;;;;;;;113.53;58.50;;;2.10;99.90;;;;;;5094452;28;20116;-69
2022/03/24 01:33:38;;;;;;;125.82;59.10;;;2.20;99.90;;;;;;5076102;28;20105;-69
2022/03/24 01:36:11;;;;;;;121.78;57.17;;;2.20;99.90;;;;;;5093985;28;20035;-69
2022/03/24 01:38:37;;;;;;;117.83;57.43;;;2.30;99.90;;;;;;5094234;28;20020;-69
2022/03/24 01:41:03;;;;;;;113.43;57.03;;;2.30;99.90;;;;;;5094111;28;20810;-69
2022/03/24 01:43:30;;;;;;;118.47;57.53;;;2.30;99.90;;;;;;5094137;28;20476;-69
2022/03/24 01:45:56;;;;;;;114.15;58.03;;;2.30;99.90;;;;;;5094017;28;20077;-69
2022/03/24 01:48:21;;;;;;;115.28;57.45;;;2.40;99.90;;;;;;5093897;28;20039;-69
2022/03/24 01:50:47;;;;;;;116.13;57.08;;;2.30;99.90;;;;;;5094237;28;20468;-69
2022/03/24 01:53:13;;;;;;;111.10;57.67;;;2.40;99.90;;;;;;5093933;28;20020;-69
2022/03/24 01:55:41;;;;;;;119.53;58.33;;;2.30;99.90;;;;;;5093780;28;20036;-69
2022/03/24 01:58:08;;;;;;;132.43;61.90;;;2.30;99.90;;;;;;5093954;28;20021;-69
2022/03/24 02:00:34;;;;;;;119.05;60.35;;;2.30;99.90;;;;;;5093734;28;20399;-69
2022/03/24 02:03:04;;;;;;;123.82;58.03;;;2.30;99.90;;;;;;5094217;28;20031;-69
2022/03/24 02:05:34;;;;;;;117.85;58.80;;;2.20;99.90;;;;;;5093806;28;20024;-69
2022/03/24 02:08:03;;;;;;;126.18;60.65;;;2.30;99.90;;;;;;5093959;28;20036;-69
2022/03/24 02:10:33;;;;;;;130.00;61.67;;;2.20;99.90;;;;;;5093739;28;20028;-69
2022/03/24 02:12:59;;;;;;;130.93;59.75;;;2.20;99.90;;;;;;5093677;28;20016;-69
2022/03/24 02:15:26;;;;;;;112.68;56.38;;;2.10;99.90;;;;;;5093680;28;20078;-69
2022/03/24 02:17:52;;;;;;;110.82;57.53;;;2.10;99.90;;;;;;5093618;28;20412;-69
2022/03/24 02:20:19;;;;;;;122.15;55.70;;;2.00;99.90;;;;;;5093601;28;20016;-69
2022/03/24 02:22:47;;;;;;;114.45;56.58;;;2.00;99.90;;;;;;5093673;28;20021;-69
2022/03/24 02:25:12;;;;;;;122.15;58.03;;;2.00;99.90;;;;;;5093837;28;20048;-69
2022/03/24 02:27:39;;;;;;;115.25;55.95;;;1.90;99.90;;;;;;5075845;28;20074;-69
2022/03/24 02:30:05;;;;;;;114.32;55.70;;;1.90;99.90;;;;;;5093648;28;20027;-69
2022/03/24 02:32:32;;;;;;;114.50;56.00;;;1.80;99.90;;;;;;5095488;28;20549;-69
2022/03/24 02:34:57;;;;;;;116.90;57.40;;;1.80;99.90;;;;;;5097450;28;20032;-69
2022/03/24 02:37:25;;;;;;;125.60;61.25;;;1.80;99.90;;;;;;5097463;28;20047;-69
2022/03/24 02:39:53;;;;;;;115.20;58.15;;;1.80;99.90;;;;;;5097538;28;20021;-69
2022/03/24 02:42:22;;;;;;;127.22;59.60;;;1.90;99.90;;;;;;5097769;28;20036;-69
2022/03/24 02:44:51;;;;;;;115.65;58.65;;;1.80;99.90;;;;;;5097368;28;20020;-69
2022/03/24 02:47:17;;;;;;;120.13;58.42;;;1.80;99.90;;;;;;5097481;28;20028;-69
2022/03/24 02:49:50;;;;;;;124.28;58.10;;;1.80;99.90;;;;;;5097375;28;20028;-69
2022/03/24 02:52:16;;;;;;;119.90;57.30;;;1.80;99.90;;;;;;5097519;28;20364;-69
2022/03/24 02:54:42;;;;;;;121.88;58.33;;;1.80;99.90;;;;;;5097500;28;20039;-69
2022/03/24 02:57:08;;;;;;;112.60;56.00;;;1.80;99.90;;;;;;5097253;28;20027;-69
2022/03/24 02:59:34;;;;;;;120.20;58.33;;;1.90;99.90;;;;;;5097200;28;20059;-69
2022/03/24 03:02:06;;;;;;;123.28;61.08;;;1.90;99.90;;;;;;5097083;28;20024;-69
2022/03/24 03:04:32;;;;;;;127.75;59.05;;;1.90;99.90;;;;;;5097725;28;20024;-69
2022/03/24 03:06:58;;;;;;;123.95;57.67;;;1.90;99.90;;;;;;5097053;28;20492;-69
2022/03/24 03:09:24;;;;;;;118.60;58.47;;;1.90;99.90;;;;;;5097253;28;20020;-69
2022/03/24 03:11:51;;;;;;;122.85;57.15;;;1.90;99.90;;;;;;5096809;28;20097;-69
2022/03/24 03:14:18;;;;;;;132.02;58.20;;;1.90;99.90;;;;;;5096793;28;20024;-69
2022/03/24 03:16:47;;;;;;;120.68;57.85;;;1.90;99.90;;;;;;5097007;28;20017;-69
2022/03/24 03:19:13;;;;;;;127.07;60.78;;;1.90;99.90;;;;;;5097078;28;20029;-69
2022/03/24 03:21:40;;;;;;;134.98;60.70;;;1.90;99.90;;;;;;5096700;28;20032;-69
2022/03/24 03:24:07;;;;;;;139.68;63.95;;;1.90;99.90;;;;;;5097131;28;20028;-69
2022/03/24 03:26:34;;;;;;;130.40;62.05;;;1.90;99.90;;;;;;5097538;28;20024;-69
2022/03/24 03:28:59;;;;;;;132.70;60.20;;;2.00;99.90;;;;;;5097081;28;20050;-69
2022/03/24 03:31:25;;;;;;;131.43;60.28;;;2.00;99.90;;;;;;5096489;28;20024;-69
2022/03/24 03:33:51;;;;;;;118.53;56.95;;;2.00;99.90;;;;;;5096637;28;20024;-69
2022/03/24 03:36:18;;;;;;;110.60;54.30;;;2.00;99.90;;;;;;5096958;28;20024;-68
2022/03/24 03:38:45;;;;;;;120.25;56.55;;;1.90;99.90;;;;;;5096564;28;20020;-68
2022/03/24 03:41:11;;;;;;;117.47;56.42;;;2.00;99.90;;;;;;5096316;28;20028;-68
2022/03/24 03:43:37;;;;;;;113.22;56.38;;;2.00;99.90;;;;;;5096664;28;20380;-68
2022/03/24 03:46:03;;;;;;;102.72;50.17;;;2.00;99.90;;;;;;5096113;28;20046;-68
2022/03/24 03:48:30;;;;;;;104.32;49.20;;;2.00;99.90;;;;;;5096094;28;20028;-68
2022/03/24 03:50:56;;;;;;;114.90;54.83;;;2.00;99.90;;;;;;5095971;28;20020;-68
2022/03/24 03:53:23;;;;;;;105.60;52.22;;;2.00;99.90;;;;;;5096612;28;20024;-68
2022/03/24 03:55:49;;;;;;;129.45;57.67;;;2.00;99.90;;;;;;5095945;28;20055;-68
2022/03/24 03:58:15;;;;;;;120.72;58.17;;;2.00;99.90;;;;;;5095957;28;20043;-68
2022/03/24 04:00:53;;;;;;;123.40;58.72;;;1.90;99.90;;;;;;5096419;28;20460;-68
2022/03/24 04:03:25;;;;;;;119.65;55.70;;;2.00;99.90;;;;;;5096140;28;20105;-68
2022/03/24 04:05:55;;;;;;;112.30;56.50;;;1.90;99.90;;;;;;5096167;28;20032;-68
2022/03/24 04:08:21;;;;;;;118.55;57.85;;;1.90;99.90;;;;;;5096032;28;20024;-68
2022/03/24 04:10:52;;;;;;;119.65;55.95;;;1.90;99.90;;;;;;5095937;28;20027;-68
2022/03/24 04:13:18;;;;;;;115.30;55.35;;;1.90;99.90;;;;;;5096216;28;20027;-68
2022/03/24 04:15:45;;;;;;;128.90;61.60;;;1.80;99.90;;;;;;5095467;28;20051;-68
2022/03/24 04:18:11;;;;;;;128.73;62.35;;;1.80;99.90;;;;;;5095611;28;20541;-67
2022/03/24 04:20:38;;;;;;;168.38;71.40;;;1.80;99.90;;;;;;5095459;28;20564;-67
2022/03/24 04:23:05;;;;;;;147.77;66.38;;;2.00;99.90;;;;;;5095748;28;20020;-67
2022/03/24 04:25:31;;;;;;;132.45;64.85;;;2.00;99.90;;;;;;5095556;28;20475;-68
2022/03/24 04:27:58;;;;;;;137.75;64.53;;;2.00;99.90;;;;;;5095371;28;20028;-68
2022/03/24 04:30:26;;;;;;;130.93;61.33;;;1.90;99.90;;;;;;5095383;28;20107;-68
2022/03/24 04:32:52;;;;;;;122.20;58.83;;;1.80;99.90;;;;;;5096084;28;20375;-68
2022/03/24 04:35:18;;;;;;;122.78;61.13;;;1.70;99.90;;;;;;5095129;28;20039;-67
2022/03/24 04:37:44;;;;;;;123.90;60.15;;;1.60;99.90;;;;;;5095389;28;20034;-67
2022/03/24 04:40:11;;;;;;;125.75;60.60;;;1.50;99.90;;;;;;5095098;28;20024;-67
2022/03/24 04:42:38;;;;;;;140.25;62.00;;;1.50;99.90;;;;;;5095074;28;20073;-67
2022/03/24 04:45:05;;;;;;;126.75;61.45;;;1.50;99.90;;;;;;5095740;28;20408;-68
2022/03/24 04:47:30;;;;;;;135.95;64.88;;;1.50;99.90;;;;;;5095540;28;20101;-68
2022/03/24 04:49:56;;;;;;;133.82;60.65;;;1.50;99.90;;;;;;5094964;28;20056;-68
2022/03/24 04:52:22;;;;;;;133.48;60.90;;;1.50;99.90;;;;;;5094788;28;20024;-68
2022/03/24 04:54:48;;;;;;;127.22;59.28;;;1.50;99.90;;;;;;5094111;28;20035;-68
2022/03/24 04:57:13;;;;;;;133.50;61.50;;;1.50;99.90;;;;;;5094772;28;20021;-68
2022/03/24 04:59:39;;;;;;;130.82;60.50;;;1.40;99.90;;;;;;5094752;28;20028;-67
2022/03/24 05:02:06;;;;;;;140.00;61.75;;;1.30;99.90;;;;;;5094934;28;20103;-67
2022/03/24 05:04:32;;;;;;;139.43;61.55;;;1.30;99.90;;;;;;5094792;28;20077;-68
2022/03/24 05:06:58;;;;;;;133.30;60.30;;;1.20;99.90;;;;;;5094650;28;20036;-68
2022/03/24 05:09:23;;;;;;;141.18;61.88;;;1.20;99.90;;;;;;5094794;28;20019;-68
2022/03/24 05:11:49;;;;;;;136.02;61.58;;;1.10;99.90;;;;;;5094741;28;20490;-67
2022/03/24 05:14:14;;;;;;;131.30;59.50;;;1.10;99.90;;;;;;5094595;28;20039;-68
2022/03/24 05:16:40;;;;;;;127.53;59.47;;;1.10;99.90;;;;;;5094391;28;20031;-67
2022/03/24 05:19:06;;;;;;;132.88;60.55;;;1.00;99.90;;;;;;5076271;28;20069;-67
2022/03/24 05:21:32;;;;;;;129.07;60.95;;;1.00;99.90;;;;;;5094516;28;20103;-68
2022/03/24 05:23:59;;;;;;;127.22;57.80;;;0.90;99.90;;;;;;5094369;28;20028;-68
2022/03/24 05:26:25;;;;;;;118.00;56.90;;;0.90;99.90;;;;;;5094312;28;20020;-68
2022/03/24 05:28:51;;;;;;;121.10;55.35;;;0.90;99.90;;;;;;5094232;28;20387;-68
2022/03/24 05:31:17;;;;;;;115.85;54.65;;;0.90;99.90;;;;;;5094076;28;20024;-68
2022/03/24 05:33:43;;;;;;;119.90;55.60;;;0.90;99.90;;;;;;5094073;28;20047;-68
2022/03/24 05:36:09;;;;;;;136.05;58.35;;;0.90;99.90;;;;;;5094340;28;20064;-68
2022/03/24 05:38:35;;;;;;;129.70;60.45;;;0.90;99.90;;;;;;5094026;28;20065;-67
2022/03/24 05:41:01;;;;;;;137.18;62.25;;;1.00;99.90;;;;;;5094356;28;20024;-67
2022/03/24 05:43:27;;;;;;;132.77;61.55;;;1.00;99.90;;;;;;5093958;28;20050;-67
2022/03/24 05:45:53;;;;;;;133.55;63.17;;;1.00;99.90;;;;;;5093987;28;20402;-67
2022/03/24 05:48:18;;;;;;;130.07;59.90;;;1.10;99.90;;;;;;5094460;28;20108;-68
2022/03/24 05:50:44;;;;;;;142.27;62.78;;;1.10;99.90;;;;;;5094348;28;20078;-68
2022/03/24 05:53:09;;;;;;;128.52;58.83;;;1.10;99.90;;;;;;5093957;28;20468;-67
2022/03/24 05:55:37;;;;;;;136.57;59.58;;;1.20;99.90;;;;;;5093660;28;20020;-68
2022/03/24 05:58:04;;;;;;;123.07;56.83;;;1.20;99.90;;;;;;5093856;28;20099;-68
2022/03/24 06:00:30;;;;;;;132.85;62.25;;;1.20;99.90;;;;;;5093724;28;20388;-68
2022/03/24 06:02:56;;;;;;;125.90;58.00;;;1.30;99.90;;;;;;5093720;28;20491;-68
2022/03/24 06:05:23;;;;;;;131.70;61.28;;;1.30;99.90;;;;;;5093567;28;20065;-68
2022/03/24 06:07:49;;;;;;;139.50;64.10;;;1.40;99.90;;;;;;5075553;28;20029;-67
2022/03/24 06:10:15;;;;;;;142.98;62.55;;;1.40;99.90;;;;;;5093789;28;20035;-67
2022/03/24 06:12:41;;;;;;;142.60;65.22;;;1.50;99.90;;;;;;5093571;28;20025;-67
2022/03/24 06:15:07;;;;;;;137.02;60.95;;;1.60;99.90;;;;;;5093496;28;20032;-68
2022/03/24 06:17:33;;;;;;;130.65;61.58;;;1.70;99.90;;;;;;5075508;28;20024;-67
2022/03/24 06:20:01;;;;;;;141.40;62.08;;;1.80;99.90;;;;;;5093375;28;20020;-68
2022/03/24 06:22:27;;;;;;;137.95;62.85;;;2.00;99.90;;;;;;5093562;28;20024;-68
2022/03/24 06:24:53;;;;;;;141.57;63.20;;;2.10;99.90;;;;;;5093369;28;20472;-68
2022/03/24 06:27:19;;;;;;;130.80;61.20;;;2.20;99.90;;;;;;5093755;28;20024;-68
2022/03/24 06:29:45;;;;;;;127.45;60.63;;;2.40;99.90;;;;;;5093481;28;20437;-67
2022/03/24 06:32:11;;;;;;;141.20;63.42;;;2.50;99.90;;;;;;5093332;28;20101;-67
2022/03/24 06:34:37;;;;;;;127.57;59.22;;;2.50;99.90;;;;;;5093260;28;20048;-67
2022/03/24 06:37:03;;;;;;;119.07;59.78;;;2.70;99.90;;;;;;5093872;28;20088;-67
2022/03/24 06:39:29;;;;;;;133.55;63.22;;;2.80;99.90;;;;;;5093295;28;20108;-67
2022/03/24 06:41:55;;;;;;;135.65;61.22;;;2.90;99.90;;;;;;5093364;28;20050;-67
2022/03/24 06:44:21;;;;;;;131.02;62.40;;;2.90;99.90;;;;;;5093246;28;20066;-68
2022/03/24 06:46:48;;;;;;;140.18;64.75;;;3.10;99.90;;;;;;5093500;28;20059;-67
2022/03/24 06:49:15;;;;;;;138.77;65.30;;;3.20;99.90;;;;;;5093290;28;20024;-67
2022/03/24 06:51:40;;;;;;;126.57;60.47;;;3.30;99.90;;;;;;5093179;28;20032;-68
2022/03/24 06:54:06;;;;;;;139.85;62.17;;;3.40;99.90;;;;;;5093262;28;20361;-68
2022/03/24 06:56:31;;;;;;;136.07;66.75;;;3.40;99.90;;;;;;5093146;28;20032;-68
2022/03/24 06:58:57;;;;;;;143.98;66.32;;;3.60;99.90;;;;;;5093135;28;20016;-68
2022/03/24 07:01:22;;;;;;;140.57;67.93;;;3.70;99.90;;;;;;5093168;28;20072;-68
2022/03/24 07:03:48;;;;;;;145.60;68.15;;;3.90;99.90;;;;;;5093259;28;20049;-68
2022/03/24 07:06:14;;;;;;;140.13;64.70;;;4.10;99.90;;;;;;5093255;28;20468;-68
2022/03/24 07:08:39;;;;;;;152.02;65.28;;;4.30;99.90;;;;;;5093158;28;20497;-68
2022/03/24 07:11:06;;;;;;;143.95;71.75;;;4.50;99.90;;;;;;5093410;28;20016;-69
2022/03/24 07:13:32;;;;;;;150.85;71.05;;;4.70;99.90;;;;;;5093066;28;20035;-68
2022/03/24 07:15:57;;;;;;;163.05;75.22;;;4.90;99.90;;;;;;5093010;28;20453;-68
2022/03/24 07:18:23;;;;;;;156.30;75.60;;;5.10;99.90;;;;;;5076641;28;20027;-68
2022/03/24 07:20:50;;;;;;;142.88;70.90;;;5.30;99.90;;;;;;5096743;28;20024;-67
2022/03/24 07:23:16;;;;;;;151.23;71.45;;;5.60;99.90;;;;;;5097024;28;20028;-67
2022/03/24 07:25:42;;;;;;;143.02;69.72;;;5.80;99.90;;;;;;5096897;28;20066;-68
2022/03/24 07:28:10;;;;;;;152.32;74.57;;;6.10;99.90;;;;;;5096523;28;20020;-67
2022/03/24 07:30:35;;;;;;;151.57;72.60;;;6.30;99.90;;;;;;5096394;28;20059;-67
2022/03/24 07:33:02;;;;;;;140.70;68.72;;;6.50;99.90;;;;;;5096677;28;20031;-67
2022/03/24 07:35:29;;;;;;;142.80;68.07;;;6.70;99.90;;;;;;5096304;28;20418;-68
2022/03/24 07:37:55;;;;;;;150.00;71.28;;;7.00;99.90;;;;;;5096343;28;20488;-67
2022/03/24 07:40:22;;;;;;;127.25;68.85;;;7.10;99.90;;;;;;5096579;28;20089;-67
2022/03/24 07:42:57;;;;;;;150.57;73.38;;;7.40;99.90;;;;;;5096261;28;20051;-68
2022/03/24 07:45:23;;;;;;;145.00;69.90;;;7.40;99.90;;;;;;5096298;28;20421;-67
2022/03/24 07:48:11;;;;;;;134.90;69.35;;;7.60;99.90;;;;;;5096153;28;20464;-67
2022/03/24 07:50:38;;;;;;;133.38;67.20;;;7.70;99.90;;;;;;5096254;28;20077;-68
2022/03/24 07:53:42;;;;;;;140.32;66.72;;;8.00;99.90;;;;;;5096424;28;20023;-68
2022/03/24 07:56:08;;;;;;;145.55;68.32;;;8.20;99.90;;;;;;5096365;28;20017;-68
2022/03/24 07:58:34;;;;;;;143.90;69.07;;;8.50;99.90;;;;;;5095925;28;20418;-68
2022/03/24 08:00:59;;;;;;;137.85;66.78;;;8.60;99.90;;;;;;5095896;28;20028;-68
2022/03/24 08:03:26;;;;;;;137.10;68.15;;;8.80;99.90;;;;;;5095852;28;20429;-68
2022/03/24 08:05:51;;;;;;;128.88;65.47;;;8.80;99.90;;;;;;5095699;28;20028;-68
2022/03/24 08:08:18;;;;;;;124.93;65.28;;;9.10;99.90;;;;;;5095773;28;20495;-68
2022/03/24 08:10:46;;;;;;;125.80;65.13;;;9.30;99.90;;;;;;5096368;28;20028;-70
2022/03/24 08:13:13;;;;;;;121.72;64.00;;;9.50;99.90;;;;;;5096427;28;20043;-68
2022/03/24 08:15:40;;;;;;;128.02;67.78;;;9.60;99.90;;;;;;5096133;28;20081;-68
2022/03/24 08:18:06;;;;;;;123.22;62.78;;;9.70;99.90;;;;;;5095564;28;20027;-68
2022/03/24 08:20:32;;;;;;;119.32;63.15;;;9.80;99.90;;;;;;5095543;28;20028;-68
2022/03/24 08:22:59;;;;;;;137.35;64.15;;;10.00;99.90;;;;;;5095426;28;20016;-68
2022/03/24 08:25:24;;;;;;;122.25;61.38;;;10.00;99.90;;;;;;5095441;28;20022;-68
2022/03/24 08:27:50;;;;;;;120.85;64.88;;;10.20;99.90;;;;;;5095402;28;20103;-68
2022/03/24 08:30:15;;;;;;;112.95;59.22;;;10.30;99.90;;;;;;5094279;28;20031;-68
2022/03/24 08:32:41;;;;;;;114.60;60.53;;;10.30;99.90;;;;;;5095817;28;20028;-68
2022/03/24 08:35:08;;;;;;;101.90;57.58;;;10.50;99.90;;;;;;5095011;28;20369;-68
2022/03/24 08:37:34;;;;;;;123.90;61.80;;;10.70;99.90;;;;;;5095038;28;20368;-68
2022/03/24 08:39:59;;;;;;;122.68;63.78;;;10.70;99.90;;;;;;5094957;28;20073;-68
2022/03/24 08:42:25;;;;;;;119.95;60.55;;;10.80;99.90;;;;;;5095144;28;20024;-68
2022/03/24 08:44:51;;;;;;;134.65;61.03;;;10.90;99.90;;;;;;5094995;28;20240;-68
2022/03/24 08:47:16;;;;;;;108.97;60.38;;;11.10;99.90;;;;;;5095229;28;20114;-68
2022/03/24 08:49:42;;;;;;;115.20;59.58;;;11.20;99.90;;;;;;5094945;28;20016;-68
2022/03/24 08:52:09;;;;;;;110.65;59.70;;;11.30;99.90;;;;;;5094840;28;20032;-68
2022/03/24 08:54:35;;;;;;;115.28;59.85;;;11.40;99.90;;;;;;5094824;28;20138;-68
2022/03/24 08:57:00;;;;;;;115.10;60.05;;;11.60;99.90;;;;;;5095179;28;20487;-68
2022/03/24 08:59:26;;;;;;;118.43;60.25;;;11.70;99.90;;;;;;5094827;28;20524;-68
2022/03/24 09:01:52;;;;;;;114.45;59.97;;;11.80;99.90;;;;;;5094957;28;20365;-69
2022/03/24 09:04:20;;;;;;;121.18;60.63;;;11.90;99.90;;;;;;5094911;28;20030;-69
2022/03/24 09:06:46;;;;;;;112.22;58.30;;;11.90;99.90;;;;;;5095149;28;20028;-69
2022/03/24 09:09:12;;;;;;;108.25;58.67;;;12.00;99.90;;;;;;5094574;28;20036;-68
2022/03/24 09:11:38;;;;;;;116.35;60.00;;;12.10;99.90;;;;;;5094767;28;20533;-68
2022/03/24 09:14:03;;;;;;;113.00;60.63;;;12.20;99.90;;;;;;5094414;28;20024;-68
2022/03/24 09:16:29;;;;;;;116.35;59.20;;;12.20;99.90;;;;;;5094420;28;20023;-68
2022/03/24 09:18:54;;;;;;;121.47;60.13;;;12.50;99.90;;;;;;5094316;28;20024;-68
2022/03/24 09:21:20;;;;;;;115.43;60.05;;;12.60;99.90;;;;;;5094257;28;20024;-68
2022/03/24 09:23:46;;;;;;;112.57;58.38;;;12.80;99.90;;;;;;5094199;28;20035;-68
2022/03/24 09:26:12;;;;;;;109.22;60.08;;;13.00;99.90;;;;;;5094972;28;20031;-67
2022/03/24 09:28:38;;;;;;;104.22;58.28;;;13.10;99.90;;;;;;5094710;28;20414;-68
2022/03/24 09:31:04;;;;;;;109.63;59.55;;;13.20;99.90;;;;;;5094370;28;20376;-68
2022/03/24 09:33:29;;;;;;;121.78;59.30;;;13.10;99.90;;;;;;5094178;28;20024;-69
2022/03/24 09:35:55;;;;;;;118.43;62.03;;;12.90;99.90;;;;;;5094619;28;20040;-69
2022/03/24 09:38:21;;;;;;;110.88;60.35;;;13.00;99.90;;;;;;5095212;28;20033;-69
2022/03/24 09:40:46;;;;;;;102.90;56.90;;;13.10;99.90;;;;;;5095102;28;20047;-69
2022/03/24 09:43:15;;;;;;;111.68;56.42;;;13.00;99.90;;;;;;5095282;28;20107;-69
2022/03/24 09:45:42;;;;;;;109.15;59.25;;;13.00;99.90;;;;;;5095003;28;20024;-69
2022/03/24 09:48:10;;;;;;;105.50;57.03;;;13.00;99.90;;;;;;5093996;28;20015;-68
2022/03/24 09:50:36;;;;;;;114.57;57.25;;;13.10;99.90;;;;;;5093878;28;20052;-68
2022/03/24 09:53:03;;;;;;;111.88;58.80;;;13.30;99.90;;;;;;5094298;28;20051;-68
2022/03/24 09:55:32;;;;;;;106.70;58.35;;;13.40;99.90;;;;;;5094103;28;20119;-69
2022/03/24 09:57:59;;;;;;;106.47;58.13;;;13.50;99.90;;;;;;5094224;28;20012;-68
2022/03/24 10:00:25;;;;;;;116.07;58.42;;;13.70;99.90;;;;;;5094558;28;20024;-69
2022/03/24 10:03:17;;;;;;;100.05;56.55;;;13.90;99.90;;;;;;5093964;28;20028;-69
2022/03/24 10:06:04;;;;;;;114.55;58.03;;;14.00;99.90;;;;;;5093566;28;20034;-69
2022/03/24 10:08:30;;;;;;;109.38;56.65;;;14.00;99.90;;;;;;5093667;28;20026;-69
2022/03/24 10:10:57;;;;;;;115.70;59.03;;;14.00;99.90;;;;;;5093914;28;20047;-69
2022/03/24 10:13:24;;;;;;;115.55;58.40;;;14.20;99.90;;;;;;5093588;28;20020;-69
2022/03/24 10:15:50;;;;;;;111.55;59.15;;;14.20;99.90;;;;;;5093567;28;20024;-69
2022/03/24 10:18:16;;;;;;;104.43;56.90;;;14.20;99.90;;;;;;5094134;28;20024;-69
2022/03/24 10:20:42;;;;;;;98.68;56.22;;;14.40;99.90;;;;;;5093613;28;20069;-69
2022/03/24 10:23:08;;;;;;;114.50;58.67;;;14.60;99.90;;;;;;5093599;28;20028;-69
2022/03/24 10:25:37;;;;;;;103.22;56.55;;;14.80;99.90;;;;;;5093462;28;20024;-69
2022/03/24 10:28:14;;;;;;;101.57;56.58;;;15.10;99.90;;;;;;5075468;28;20468;-69
2022/03/24 10:30:57;;;;;;;106.63;57.65;;;15.50;99.90;;;;;;5093900;28;20072;-68
2022/03/24 10:33:25;;;;;;;104.17;55.03;;;15.50;99.90;;;;;;5094817;28;20024;-68
2022/03/24 10:36:03;;;;;;;105.82;59.28;;;15.30;99.90;;;;;;5093879;28;20478;-69
2022/03/24 10:38:32;;;;;;;97.88;54.72;;;15.40;99.90;;;;;;5093915;28;20030;-69
2022/03/24 10:41:12;;;;;;;99.30;58.17;;;15.40;99.90;;;;;;5093492;28;20055;-69
2022/03/24 10:43:38;;;;;;;102.15;57.75;;;15.50;99.90;;;;;;5093658;28;20082;-69
2022/03/24 10:46:13;;;;;;;109.43;54.13;;;15.50;99.90;;;;;;5093341;28;20051;-69
2022/03/24 10:48:38;;;;;;;99.32;55.85;;;15.50;99.90;;;;;;5093419;28;20099;-69
2022/03/24 10:51:04;;;;;;;96.60;53.20;;;15.70;99.90;;;;;;5093196;28;20119;-69
2022/03/24 10:53:41;;;;;;;96.72;54.53;;;15.90;99.90;;;;;;5095745;28;20048;-69
2022/03/24 10:56:08;;;;;;;98.78;55.05;;;15.80;99.90;;;;;;5097444;28;20028;-69
2022/03/24 10:58:38;;;;;;;102.00;55.03;;;15.80;99.90;;;;;;5097131;28;20031;-69
2022/03/24 11:01:07;;;;;;;100.78;53.80;;;15.90;99.90;;;;;;5097532;28;20088;-69
2022/03/24 11:03:33;;;;;;;90.00;53.65;;;15.90;99.90;;;;;;5097358;28;20024;-69
2022/03/24 11:06:29;;;;;;;96.70;54.17;;;15.80;99.90;;;;;;5096985;28;20027;-69
2022/03/24 11:09:01;;;;;;;96.30;54.72;;;15.90;99.90;;;;;;5080885;28;20472;-69
2022/03/24 11:11:28;;;;;;;97.05;55.60;;;15.90;99.90;;;;;;5096823;28;20505;-69
2022/03/24 11:13:58;;;;;;;102.88;58.97;;;16.10;99.90;;;;;;5097136;28;20020;-69
2022/03/24 11:16:34;;;;;;;94.55;53.97;;;16.20;99.90;;;;;;5097579;28;20467;-69
2022/03/24 11:19:01;;;;;;;100.28;54.80;;;16.10;99.90;;;;;;5097203;28;20024;-69
2022/03/24 11:21:57;;;;;;;97.88;56.13;;;16.20;99.90;;;;;;5096804;28;20031;-69
2022/03/24 11:24:24;;;;;;;96.55;53.40;;;16.40;99.90;;;;;;5095525;28;20036;-69
2022/03/24 11:26:50;;;;;;;97.22;54.30;;;16.70;99.90;;;;;;5096689;28;20020;-69
2022/03/24 11:29:16;;;;;;;94.18;51.80;;;16.50;99.90;;;;;;5096680;28;20119;-69
2022/03/24 11:31:45;;;;;;;95.65;50.88;;;16.60;99.90;;;;;;5096687;28;20505;-67
2022/03/24 11:34:11;;;;;;;100.55;51.90;;;16.60;99.90;;;;;;5096608;28;20028;-67
2022/03/24 11:36:36;;;;;;;102.13;52.70;;;16.50;99.90;;;;;;5096636;28;20032;-67
2022/03/24 11:39:05;;;;;;;96.90;52.90;;;16.50;99.90;;;;;;5096551;28;20468;-67
2022/03/24 11:41:40;;;;;;;87.57;52.47;;;16.80;99.90;;;;;;5096701;28;20047;-67
2022/03/24 11:44:26;;;;;;;92.97;55.70;;;16.70;99.90;;;;;;5078370;28;20024;-67
2022/03/24 11:46:59;;;;;;;99.85;54.75;;;17.10;99.90;;;;;;5096776;28;20027;-67
2022/03/24 11:49:27;;;;;;;93.38;55.15;;;17.10;99.90;;;;;;5096616;28;20035;-67
2022/03/24 11:51:58;;;;;;;83.68;48.40;;;17.00;99.90;;;;;;5096797;28;20056;-67
2022/03/24 11:54:26;;;;;;;99.60;54.25;;;17.20;99.90;;;;;;5096369;28;20052;-68
2022/03/24 11:57:28;;;;;;;88.45;53.55;;;17.40;99.90;;;;;;5096218;28;20020;-68
2022/03/24 12:00:12;;;;;;;91.07;55.22;;;17.30;99.90;;;;;;5096623;28;20016;-68
2022/03/24 12:02:38;;;;;;;;;;;17.70;99.90;;;;;;5096617;28;20024;-68
2022/03/24 12:05:04;;;;;;;91.07;50.25;;;17.80;99.90;;;;;;5096030;28;19904;-67
2022/03/24 12:07:30;;;;;;;90.70;50.05;;;18.10;99.90;;;;;;5096021;28;20028;-67
2022/03/24 12:10:02;;;;;;;95.75;51.40;;;18.30;99.20;;;;;;5096153;28;20025;-67
2022/03/24 12:12:29;;;;;;;94.53;52.67;;;18.20;97.70;;;;;;5096535;28;20026;-67
2022/03/24 12:14:55;;;;;;;99.07;54.10;;;18.40;98.70;;;;;;5095856;28;20020;-67
2022/03/24 12:17:30;;;;;;;92.60;52.03;;;18.30;98.60;;;;;;5096224;28;20020;-66
2022/03/24 12:19:58;;;;;;;101.45;54.25;;;18.30;99.90;;;;;;5096701;28;20023;-67
2022/03/24 12:22:28;;;;;;;101.03;54.17;;;18.40;98.30;;;;;;5096097;28;20112;-67
2022/03/24 12:25:05;;;;;;;97.40;50.45;;;18.60;98.00;;;;;;5095920;28;20043;-68
2022/03/24 12:27:33;;;;;;;93.40;49.50;;;18.60;97.60;;;;;;5096071;28;20503;-68